sensor_id;sensor_type;location;lat;lon;timestamp;P1;durP1;ratioP1;P2;durP2;ratioP2
3999;SDS011;2014;53.604;10.112;2022-12-11T00:01:45;6.30;;;5.70;;
3999;SDS011;2014;53.604;10.112;2022-12-11T00:04:12;4.80;;;4.40;;
3999;SDS011;2014;53.604;10.112;2022-12-11T00:06:39;5.93;;;5.33;;
3999;SDS011;2014;53.604;10.112;2022-12-11T00:09:09;5.60;;;5.13;;
3999;SDS011;2014;53.604;10.112;2022-12-11T00:11:38;5.67;;;5.17;;
3999;SDS011;2014;53.604;10.112;2022-12-11T00:14:05;6.23;;;5.67;;
3999;SDS011;2014;53.604;10.112;2022-12-11T00:16:32;5.57;;;5.17;;
3999;SDS011;2014;53.604;10.112;2022-12-11T00:19:00;4.80;;;4.40;;
3999;SDS011;2014;53.604;10.112;2022-12-11T00:21:28;5.33;;;4.93;;
3999;SDS011;2014;53.604;10.112;2022-12-11T00:23:55;4.87;;;3.90;;
3999;SDS011;2014;53.604;10.112;2022-12-11T00:26:24;5.03;;;4.63;;
3999;SDS011;2014;53.604;10.112;2022-12-11T00:28:52;5.27;;;4.83;;
3999;SDS011;2014;53.604;10.112;2022-12-11T00:31:20;4.90;;;4.60;;
3999;SDS011;2014;53.604;10.112;2022-12-11T00:33:47;6.20;;;5.70;;
3999;SDS011;2014;53.604;10.112;2022-12-11T00:36:16;4.73;;;4.43;;
3999;SDS011;2014;53.604;10.112;2022-12-11T00:38:44;5.30;;;4.90;;
3999;SDS011;2014;53.604;10.112;2022-12-11T00:41:12;4.57;;;4.20;;
3999;SDS011;2014;53.604;10.112;2022-12-11T00:43:41;4.40;;;4.07;;
3999;SDS011;2014;53.604;10.112;2022-12-11T00:46:09;4.80;;;4.50;;
3999;SDS011;2014;53.604;10.112;2022-12-11T00:48:36;4.80;;;4.40;;
3999;SDS011;2014;53.604;10.112;2022-12-11T00:51:04;4.97;;;4.47;;
3999;SDS011;2014;53.604;10.112;2022-12-11T00:53:32;5.03;;;4.67;;
3999;SDS011;2014;53.604;10.112;2022-12-11T00:56:01;4.53;;;4.27;;
3999;SDS011;2014;53.604;10.112;2022-12-11T00:58:34;5.43;;;4.93;;
3999;SDS011;2014;53.604;10.112;2022-12-11T01:01:05;4.37;;;4.17;;
3999;SDS011;2014;53.604;10.112;2022-12-11T01:03:33;6.60;;;6.00;;
3999;SDS011;2014;53.604;10.112;2022-12-11T01:06:02;5.57;;;5.17;;
3999;SDS011;2014;53.604;10.112;2022-12-11T01:08:30;6.13;;;5.43;;
3999;SDS011;2014;53.604;10.112;2022-12-11T01:11:01;6.10;;;5.60;;
3999;SDS011;2014;53.604;10.112;2022-12-11T01:13:28;5.77;;;5.20;;
3999;SDS011;2014;53.604;10.112;2022-12-11T01:15:56;6.50;;;5.90;;
3999;SDS011;2014;53.604;10.112;2022-12-11T01:18:25;5.73;;;5.23;;
3999;SDS011;2014;53.604;10.112;2022-12-11T01:20:53;5.43;;;5.03;;
3999;SDS011;2014;53.604;10.112;2022-12-11T01:23:20;5.70;;;5.30;;
3999;SDS011;2014;53.604;10.112;2022-12-11T01:25:48;6.00;;;5.40;;
3999;SDS011;2014;53.604;10.112;2022-12-11T01:28:15;4.87;;;4.33;;
3999;SDS011;2014;53.604;10.112;2022-12-11T01:30:42;4.80;;;4.50;;
3999;SDS011;2014;53.604;10.112;2022-12-11T01:33:10;4.23;;;4.03;;
3999;SDS011;2014;53.604;10.112;2022-12-11T01:35:39;4.93;;;4.53;;
3999;SDS011;2014;53.604;10.112;2022-12-11T01:38:06;4.37;;;3.97;;
3999;SDS011;2014;53.604;10.112;2022-12-11T01:40:34;4.83;;;4.53;;
3999;SDS011;2014;53.604;10.112;2022-12-11T01:43:01;5.00;;;4.57;;
3999;SDS011;2014;53.604;10.112;2022-12-11T01:45:33;5.63;;;5.23;;
3999;SDS011;2014;53.604;10.112;2022-12-11T01:48:04;5.30;;;4.90;;
3999;SDS011;2014;53.604;10.112;2022-12-11T01:50:33;6.67;;;5.93;;
3999;SDS011;2014;53.604;10.112;2022-12-11T01:53:04;6.77;;;6.10;;
3999;SDS011;2014;53.604;10.112;2022-12-11T01:55:32;6.50;;;6.00;;
3999;SDS011;2014;53.604;10.112;2022-12-11T01:58:00;7.73;;;6.67;;
3999;SDS011;2014;53.604;10.112;2022-12-11T02:00:28;7.23;;;6.53;;
3999;SDS011;2014;53.604;10.112;2022-12-11T02:02:55;9.50;;;6.37;;
3999;SDS011;2014;53.604;10.112;2022-12-11T02:05:23;7.70;;;6.67;;
3999;SDS011;2014;53.604;10.112;2022-12-11T02:07:51;6.10;;;5.60;;
3999;SDS011;2014;53.604;10.112;2022-12-11T02:10:21;6.70;;;6.10;;
3999;SDS011;2014;53.604;10.112;2022-12-11T02:12:52;6.23;;;5.67;;
3999;SDS011;2014;53.604;10.112;2022-12-11T02:15:24;6.20;;;5.63;;
3999;SDS011;2014;53.604;10.112;2022-12-11T02:17:53;6.87;;;6.20;;
3999;SDS011;2014;53.604;10.112;2022-12-11T02:20:23;7.30;;;6.50;;
3999;SDS011;2014;53.604;10.112;2022-12-11T02:25:36;6.90;;;6.30;;
3999;SDS011;2014;53.604;10.112;2022-12-11T02:28:15;8.13;;;7.33;;
3999;SDS011;2014;53.604;10.112;2022-12-11T02:30:44;8.87;;;6.40;;
3999;SDS011;2014;53.604;10.112;2022-12-11T02:33:13;6.63;;;5.90;;
3999;SDS011;2014;53.604;10.112;2022-12-11T02:35:43;7.47;;;6.70;;
3999;SDS011;2014;53.604;10.112;2022-12-11T02:38:13;7.57;;;6.87;;
3999;SDS011;2014;53.604;10.112;2022-12-11T02:40:41;5.47;;;4.97;;
3999;SDS011;2014;53.604;10.112;2022-12-11T02:43:10;6.33;;;5.80;;
3999;SDS011;2014;53.604;10.112;2022-12-11T02:45:41;6.77;;;6.00;;
3999;SDS011;2014;53.604;10.112;2022-12-11T02:48:09;6.40;;;5.60;;
3999;SDS011;2014;53.604;10.112;2022-12-11T02:50:38;5.90;;;5.40;;
3999;SDS011;2014;53.604;10.112;2022-12-11T02:53:08;6.33;;;5.80;;
3999;SDS011;2014;53.604;10.112;2022-12-11T02:55:36;6.90;;;6.00;;
3999;SDS011;2014;53.604;10.112;2022-12-11T02:58:06;5.33;;;4.93;;
3999;SDS011;2014;53.604;10.112;2022-12-11T03:00:34;6.63;;;6.00;;
3999;SDS011;2014;53.604;10.112;2022-12-11T03:03:03;6.00;;;5.50;;
3999;SDS011;2014;53.604;10.112;2022-12-11T03:05:30;5.93;;;5.53;;
3999;SDS011;2014;53.604;10.112;2022-12-11T03:07:57;6.63;;;5.93;;
3999;SDS011;2014;53.604;10.112;2022-12-11T03:10:25;5.37;;;5.00;;
3999;SDS011;2014;53.604;10.112;2022-12-11T03:12:52;5.83;;;5.43;;
3999;SDS011;2014;53.604;10.112;2022-12-11T03:15:22;7.40;;;5.87;;
3999;SDS011;2014;53.604;10.112;2022-12-11T03:17:53;6.40;;;5.80;;
3999;SDS011;2014;53.604;10.112;2022-12-11T03:20:27;5.90;;;5.50;;
3999;SDS011;2014;53.604;10.112;2022-12-11T03:23:00;5.20;;;4.80;;
3999;SDS011;2014;53.604;10.112;2022-12-11T03:25:31;7.00;;;5.83;;
3999;SDS011;2014;53.604;10.112;2022-12-11T03:28:02;6.10;;;5.60;;
3999;SDS011;2014;53.604;10.112;2022-12-11T03:30:30;7.07;;;6.37;;
3999;SDS011;2014;53.604;10.112;2022-12-11T03:33:02;7.23;;;6.60;;
3999;SDS011;2014;53.604;10.112;2022-12-11T03:35:33;6.57;;;6.07;;
3999;SDS011;2014;53.604;10.112;2022-12-11T03:38:02;6.73;;;6.07;;
3999;SDS011;2014;53.604;10.112;2022-12-11T03:40:31;9.67;;;6.77;;
3999;SDS011;2014;53.604;10.112;2022-12-11T03:43:00;6.83;;;5.33;;
3999;SDS011;2014;53.604;10.112;2022-12-11T03:45:27;11.20;;;7.60;;
3999;SDS011;2014;53.604;10.112;2022-12-11T03:47:56;7.77;;;6.97;;
3999;SDS011;2014;53.604;10.112;2022-12-11T03:50:25;8.80;;;6.20;;
3999;SDS011;2014;53.604;10.112;2022-12-11T03:52:55;6.00;;;5.40;;
3999;SDS011;2014;53.604;10.112;2022-12-11T03:55:23;6.57;;;6.10;;
3999;SDS011;2014;53.604;10.112;2022-12-11T03:57:52;8.03;;;6.67;;
3999;SDS011;2014;53.604;10.112;2022-12-11T04:00:19;7.30;;;6.67;;
3999;SDS011;2014;53.604;10.112;2022-12-11T04:02:47;7.70;;;6.17;;
3999;SDS011;2014;53.604;10.112;2022-12-11T04:05:35;6.07;;;5.33;;
3999;SDS011;2014;53.604;10.112;2022-12-11T04:08:04;7.43;;;6.83;;
3999;SDS011;2014;53.604;10.112;2022-12-11T04:10:31;7.40;;;6.70;;
3999;SDS011;2014;53.604;10.112;2022-12-11T04:12:58;6.37;;;5.77;;
3999;SDS011;2014;53.604;10.112;2022-12-11T04:15:26;6.13;;;5.53;;
3999;SDS011;2014;53.604;10.112;2022-12-11T04:17:52;9.07;;;7.07;;
3999;SDS011;2014;53.604;10.112;2022-12-11T04:20:37;8.57;;;7.67;;
3999;SDS011;2014;53.604;10.112;2022-12-11T04:23:23;6.17;;;5.63;;
3999;SDS011;2014;53.604;10.112;2022-12-11T04:26:09;8.00;;;7.30;;
3999;SDS011;2014;53.604;10.112;2022-12-11T04:28:37;6.20;;;5.77;;
3999;SDS011;2014;53.604;10.112;2022-12-11T04:31:05;7.47;;;6.77;;
3999;SDS011;2014;53.604;10.112;2022-12-11T04:33:32;7.27;;;6.53;;
3999;SDS011;2014;53.604;10.112;2022-12-11T04:36:00;6.70;;;6.10;;
3999;SDS011;2014;53.604;10.112;2022-12-11T04:38:28;8.60;;;6.80;;
3999;SDS011;2014;53.604;10.112;2022-12-11T04:40:56;7.60;;;6.90;;
3999;SDS011;2014;53.604;10.112;2022-12-11T04:43:24;6.13;;;5.63;;
3999;SDS011;2014;53.604;10.112;2022-12-11T04:45:59;7.47;;;6.67;;
3999;SDS011;2014;53.604;10.112;2022-12-11T04:48:27;9.47;;;6.47;;
3999;SDS011;2014;53.604;10.112;2022-12-11T04:50:54;8.03;;;7.07;;
3999;SDS011;2014;53.604;10.112;2022-12-11T04:53:22;7.83;;;7.10;;
3999;SDS011;2014;53.604;10.112;2022-12-11T04:55:51;7.47;;;6.77;;
3999;SDS011;2014;53.604;10.112;2022-12-11T04:58:18;8.40;;;7.57;;
3999;SDS011;2014;53.604;10.112;2022-12-11T05:00:45;7.87;;;7.07;;
3999;SDS011;2014;53.604;10.112;2022-12-11T05:03:13;8.30;;;7.50;;
3999;SDS011;2014;53.604;10.112;2022-12-11T05:05:42;7.10;;;6.40;;
3999;SDS011;2014;53.604;10.112;2022-12-11T05:08:13;10.33;;;7.20;;
3999;SDS011;2014;53.604;10.112;2022-12-11T05:10:40;8.87;;;7.63;;
3999;SDS011;2014;53.604;10.112;2022-12-11T05:13:09;7.60;;;6.93;;
3999;SDS011;2014;53.604;10.112;2022-12-11T05:15:37;7.77;;;7.00;;
3999;SDS011;2014;53.604;10.112;2022-12-11T05:18:05;7.57;;;6.50;;
3999;SDS011;2014;53.604;10.112;2022-12-11T05:20:32;7.70;;;6.90;;
3999;SDS011;2014;53.604;10.112;2022-12-11T05:23:00;8.47;;;7.33;;
3999;SDS011;2014;53.604;10.112;2022-12-11T05:25:27;8.50;;;6.43;;
3999;SDS011;2014;53.604;10.112;2022-12-11T05:27:54;9.47;;;7.00;;
3999;SDS011;2014;53.604;10.112;2022-12-11T05:30:23;8.40;;;7.60;;
3999;SDS011;2014;53.604;10.112;2022-12-11T05:32:51;7.90;;;7.20;;
3999;SDS011;2014;53.604;10.112;2022-12-11T05:35:18;7.93;;;7.13;;
3999;SDS011;2014;53.604;10.112;2022-12-11T05:37:45;7.77;;;6.90;;
3999;SDS011;2014;53.604;10.112;2022-12-11T05:40:13;8.10;;;7.40;;
3999;SDS011;2014;53.604;10.112;2022-12-11T05:42:40;8.80;;;6.83;;
3999;SDS011;2014;53.604;10.112;2022-12-11T05:45:08;6.93;;;6.53;;
3999;SDS011;2014;53.604;10.112;2022-12-11T05:47:36;8.63;;;6.70;;
3999;SDS011;2014;53.604;10.112;2022-12-11T05:50:04;8.50;;;7.60;;
3999;SDS011;2014;53.604;10.112;2022-12-11T05:52:32;8.27;;;7.40;;
3999;SDS011;2014;53.604;10.112;2022-12-11T05:54:59;9.80;;;6.97;;
3999;SDS011;2014;53.604;10.112;2022-12-11T05:57:26;7.33;;;6.60;;
3999;SDS011;2014;53.604;10.112;2022-12-11T05:59:54;10.07;;;7.40;;
3999;SDS011;2014;53.604;10.112;2022-12-11T06:02:21;8.00;;;7.27;;
3999;SDS011;2014;53.604;10.112;2022-12-11T06:04:50;12.50;;;7.50;;
3999;SDS011;2014;53.604;10.112;2022-12-11T06:07:17;7.60;;;6.90;;
3999;SDS011;2014;53.604;10.112;2022-12-11T06:09:44;11.90;;;7.50;;
3999;SDS011;2014;53.604;10.112;2022-12-11T06:12:12;9.07;;;8.13;;
3999;SDS011;2014;53.604;10.112;2022-12-11T06:14:39;8.37;;;7.50;;
3999;SDS011;2014;53.604;10.112;2022-12-11T06:17:07;9.10;;;7.50;;
3999;SDS011;2014;53.604;10.112;2022-12-11T06:19:34;11.03;;;8.20;;
3999;SDS011;2014;53.604;10.112;2022-12-11T06:22:03;8.20;;;7.40;;
3999;SDS011;2014;53.604;10.112;2022-12-11T06:24:30;9.47;;;7.53;;
3999;SDS011;2014;53.604;10.112;2022-12-11T06:26:57;8.33;;;7.30;;
3999;SDS011;2014;53.604;10.112;2022-12-11T06:29:25;10.77;;;7.27;;
3999;SDS011;2014;53.604;10.112;2022-12-11T06:31:52;9.63;;;7.40;;
3999;SDS011;2014;53.604;10.112;2022-12-11T06:34:19;7.87;;;6.37;;
3999;SDS011;2014;53.604;10.112;2022-12-11T06:36:47;8.10;;;7.30;;
3999;SDS011;2014;53.604;10.112;2022-12-11T06:39:16;7.83;;;7.13;;
3999;SDS011;2014;53.604;10.112;2022-12-11T06:41:43;10.50;;;8.43;;
3999;SDS011;2014;53.604;10.112;2022-12-11T06:44:10;8.87;;;7.70;;
3999;SDS011;2014;53.604;10.112;2022-12-11T06:46:38;8.53;;;7.73;;
3999;SDS011;2014;53.604;10.112;2022-12-11T06:49:05;10.00;;;7.87;;
3999;SDS011;2014;53.604;10.112;2022-12-11T06:51:32;11.83;;;8.10;;
3999;SDS011;2014;53.604;10.112;2022-12-11T06:54:00;9.00;;;7.60;;
3999;SDS011;2014;53.604;10.112;2022-12-11T06:56:28;8.63;;;7.80;;
3999;SDS011;2014;53.604;10.112;2022-12-11T06:58:56;15.50;;;8.77;;
3999;SDS011;2014;53.604;10.112;2022-12-11T07:01:23;9.23;;;7.10;;
3999;SDS011;2014;53.604;10.112;2022-12-11T07:03:51;11.80;;;8.50;;
3999;SDS011;2014;53.604;10.112;2022-12-11T07:06:19;9.80;;;7.43;;
3999;SDS011;2014;53.604;10.112;2022-12-11T07:08:46;11.37;;;8.23;;
3999;SDS011;2014;53.604;10.112;2022-12-11T07:11:14;9.43;;;8.10;;
3999;SDS011;2014;53.604;10.112;2022-12-11T07:13:43;13.77;;;8.90;;
3999;SDS011;2014;53.604;10.112;2022-12-11T07:16:11;12.10;;;8.63;;
3999;SDS011;2014;53.604;10.112;2022-12-11T07:18:40;10.87;;;8.20;;
3999;SDS011;2014;53.604;10.112;2022-12-11T07:21:08;11.23;;;8.17;;
3999;SDS011;2014;53.604;10.112;2022-12-11T07:23:36;14.70;;;8.60;;
3999;SDS011;2014;53.604;10.112;2022-12-11T07:26:03;11.73;;;8.70;;
3999;SDS011;2014;53.604;10.112;2022-12-11T07:28:31;13.40;;;9.50;;
3999;SDS011;2014;53.604;10.112;2022-12-11T07:31:03;11.23;;;8.40;;
3999;SDS011;2014;53.604;10.112;2022-12-11T07:33:30;9.37;;;8.20;;
3999;SDS011;2014;53.604;10.112;2022-12-11T07:35:59;12.80;;;8.40;;
3999;SDS011;2014;53.604;10.112;2022-12-11T07:38:26;11.10;;;8.27;;
3999;SDS011;2014;53.604;10.112;2022-12-11T07:40:54;10.70;;;8.37;;
3999;SDS011;2014;53.604;10.112;2022-12-11T07:43:21;11.57;;;8.80;;
3999;SDS011;2014;53.604;10.112;2022-12-11T07:45:49;9.57;;;8.00;;
3999;SDS011;2014;53.604;10.112;2022-12-11T07:48:17;9.43;;;7.87;;
3999;SDS011;2014;53.604;10.112;2022-12-11T07:50:45;12.30;;;8.77;;
3999;SDS011;2014;53.604;10.112;2022-12-11T07:53:12;8.73;;;7.57;;
3999;SDS011;2014;53.604;10.112;2022-12-11T07:55:39;11.90;;;7.97;;
3999;SDS011;2014;53.604;10.112;2022-12-11T07:58:07;8.90;;;7.40;;
3999;SDS011;2014;53.604;10.112;2022-12-11T08:00:34;14.37;;;8.73;;
3999;SDS011;2014;53.604;10.112;2022-12-11T08:03:01;14.17;;;9.23;;
3999;SDS011;2014;53.604;10.112;2022-12-11T08:05:30;13.23;;;8.73;;
3999;SDS011;2014;53.604;10.112;2022-12-11T08:07:58;10.17;;;8.30;;
3999;SDS011;2014;53.604;10.112;2022-12-11T08:10:25;8.43;;;7.63;;
3999;SDS011;2014;53.604;10.112;2022-12-11T08:12:52;12.30;;;8.37;;
3999;SDS011;2014;53.604;10.112;2022-12-11T08:15:19;9.90;;;8.33;;
3999;SDS011;2014;53.604;10.112;2022-12-11T08:17:47;9.80;;;8.13;;
3999;SDS011;2014;53.604;10.112;2022-12-11T08:20:14;8.67;;;7.83;;
3999;SDS011;2014;53.604;10.112;2022-12-11T08:22:43;8.57;;;7.70;;
3999;SDS011;2014;53.604;10.112;2022-12-11T08:25:10;10.67;;;8.63;;
3999;SDS011;2014;53.604;10.112;2022-12-11T08:27:38;13.93;;;7.50;;
3999;SDS011;2014;53.604;10.112;2022-12-11T08:30:06;13.53;;;7.77;;
3999;SDS011;2014;53.604;10.112;2022-12-11T08:32:34;8.20;;;7.50;;
3999;SDS011;2014;53.604;10.112;2022-12-11T08:35:01;12.70;;;9.00;;
3999;SDS011;2014;53.604;10.112;2022-12-11T08:37:28;11.20;;;9.57;;
3999;SDS011;2014;53.604;10.112;2022-12-11T08:39:57;11.73;;;9.03;;
3999;SDS011;2014;53.604;10.112;2022-12-11T08:42:25;10.67;;;8.53;;
3999;SDS011;2014;53.604;10.112;2022-12-11T08:44:52;10.60;;;9.40;;
3999;SDS011;2014;53.604;10.112;2022-12-11T08:47:19;10.27;;;8.80;;
3999;SDS011;2014;53.604;10.112;2022-12-11T08:49:47;11.73;;;9.13;;
3999;SDS011;2014;53.604;10.112;2022-12-11T08:52:14;10.00;;;7.87;;
3999;SDS011;2014;53.604;10.112;2022-12-11T08:54:41;10.87;;;7.60;;
3999;SDS011;2014;53.604;10.112;2022-12-11T08:57:10;3.30;;;3.10;;
3999;SDS011;2014;53.604;10.112;2022-12-11T08:59:37;8.90;;;6.50;;
3999;SDS011;2014;53.604;10.112;2022-12-11T09:02:05;12.40;;;6.63;;
3999;SDS011;2014;53.604;10.112;2022-12-11T09:04:33;12.00;;;8.83;;
3999;SDS011;2014;53.604;10.112;2022-12-11T09:07:00;13.30;;;9.30;;
3999;SDS011;2014;53.604;10.112;2022-12-11T09:09:27;14.27;;;10.47;;
3999;SDS011;2014;53.604;10.112;2022-12-11T09:11:55;14.57;;;9.13;;
3999;SDS011;2014;53.604;10.112;2022-12-11T09:14:24;11.60;;;9.70;;
3999;SDS011;2014;53.604;10.112;2022-12-11T09:16:52;15.73;;;9.40;;
3999;SDS011;2014;53.604;10.112;2022-12-11T09:19:19;13.30;;;10.37;;
3999;SDS011;2014;53.604;10.112;2022-12-11T09:21:47;10.97;;;8.00;;
3999;SDS011;2014;53.604;10.112;2022-12-11T09:24:14;12.60;;;8.90;;
3999;SDS011;2014;53.604;10.112;2022-12-11T09:26:41;12.27;;;8.90;;
3999;SDS011;2014;53.604;10.112;2022-12-11T09:29:09;10.37;;;8.27;;
3999;SDS011;2014;53.604;10.112;2022-12-11T09:31:38;11.07;;;8.23;;
3999;SDS011;2014;53.604;10.112;2022-12-11T09:34:06;13.97;;;9.20;;
3999;SDS011;2014;53.604;10.112;2022-12-11T09:36:34;8.63;;;7.83;;
3999;SDS011;2014;53.604;10.112;2022-12-11T09:39:02;11.80;;;8.53;;
3999;SDS011;2014;53.604;10.112;2022-12-11T09:41:37;10.07;;;8.63;;
3999;SDS011;2014;53.604;10.112;2022-12-11T09:46:51;12.97;;;8.60;;
3999;SDS011;2014;53.604;10.112;2022-12-11T09:49:21;11.40;;;8.30;;
3999;SDS011;2014;53.604;10.112;2022-12-11T09:51:51;10.70;;;8.17;;
3999;SDS011;2014;53.604;10.112;2022-12-11T09:54:20;10.60;;;8.90;;
3999;SDS011;2014;53.604;10.112;2022-12-11T09:56:49;12.43;;;9.17;;
3999;SDS011;2014;53.604;10.112;2022-12-11T09:59:19;10.23;;;8.83;;
3999;SDS011;2014;53.604;10.112;2022-12-11T10:01:51;10.70;;;8.30;;
3999;SDS011;2014;53.604;10.112;2022-12-11T10:04:24;10.60;;;8.30;;
3999;SDS011;2014;53.604;10.112;2022-12-11T10:06:57;10.27;;;8.17;;
3999;SDS011;2014;53.604;10.112;2022-12-11T10:09:29;9.00;;;7.70;;
3999;SDS011;2014;53.604;10.112;2022-12-11T10:12:00;10.20;;;7.53;;
3999;SDS011;2014;53.604;10.112;2022-12-11T10:14:33;10.87;;;7.57;;
3999;SDS011;2014;53.604;10.112;2022-12-11T10:17:06;9.47;;;7.67;;
3999;SDS011;2014;53.604;10.112;2022-12-11T10:19:35;7.17;;;6.47;;
3999;SDS011;2014;53.604;10.112;2022-12-11T10:22:03;7.00;;;6.30;;
3999;SDS011;2014;53.604;10.112;2022-12-11T10:24:32;7.73;;;6.77;;
3999;SDS011;2014;53.604;10.112;2022-12-11T10:27:07;8.67;;;7.87;;
3999;SDS011;2014;53.604;10.112;2022-12-11T10:29:38;9.33;;;7.73;;
3999;SDS011;2014;53.604;10.112;2022-12-11T10:32:10;8.80;;;7.97;;
3999;SDS011;2014;53.604;10.112;2022-12-11T10:34:41;10.50;;;7.40;;
3999;SDS011;2014;53.604;10.112;2022-12-11T10:37:10;10.57;;;7.50;;
3999;SDS011;2014;53.604;10.112;2022-12-11T10:39:37;7.30;;;6.57;;
3999;SDS011;2014;53.604;10.112;2022-12-11T10:42:09;9.17;;;7.70;;
3999;SDS011;2014;53.604;10.112;2022-12-11T10:44:40;11.73;;;8.40;;
3999;SDS011;2014;53.604;10.112;2022-12-11T10:47:10;10.00;;;8.13;;
3999;SDS011;2014;53.604;10.112;2022-12-11T10:49:38;10.87;;;7.80;;
3999;SDS011;2014;53.604;10.112;2022-12-11T10:52:09;9.10;;;6.70;;
3999;SDS011;2014;53.604;10.112;2022-12-11T10:54:37;9.33;;;8.33;;
3999;SDS011;2014;53.604;10.112;2022-12-11T10:57:08;7.47;;;6.80;;
3999;SDS011;2014;53.604;10.112;2022-12-11T10:59:37;10.87;;;7.80;;
3999;SDS011;2014;53.604;10.112;2022-12-11T11:02:05;7.80;;;6.87;;
3999;SDS011;2014;53.604;10.112;2022-12-11T11:04:35;11.20;;;7.60;;
3999;SDS011;2014;53.604;10.112;2022-12-11T11:07:10;8.40;;;7.60;;
3999;SDS011;2014;53.604;10.112;2022-12-11T11:09:38;7.47;;;6.67;;
3999;SDS011;2014;53.604;10.112;2022-12-11T11:12:16;8.47;;;7.57;;
3999;SDS011;2014;53.604;10.112;2022-12-11T11:14:43;7.83;;;7.07;;
3999;SDS011;2014;53.604;10.112;2022-12-11T11:17:13;7.60;;;6.90;;
3999;SDS011;2014;53.604;10.112;2022-12-11T11:19:43;5.87;;;5.27;;
3999;SDS011;2014;53.604;10.112;2022-12-11T11:22:13;6.60;;;5.83;;
3999;SDS011;2014;53.604;10.112;2022-12-11T11:24:42;8.37;;;7.60;;
3999;SDS011;2014;53.604;10.112;2022-12-11T11:27:10;10.67;;;6.50;;
3999;SDS011;2014;53.604;10.112;2022-12-11T11:29:38;16.53;;;7.30;;
3999;SDS011;2014;53.604;10.112;2022-12-11T11:32:13;8.13;;;7.30;;
3999;SDS011;2014;53.604;10.112;2022-12-11T11:34:43;6.70;;;6.20;;
3999;SDS011;2014;53.604;10.112;2022-12-11T11:37:21;7.57;;;6.50;;
3999;SDS011;2014;53.604;10.112;2022-12-11T11:39:49;8.60;;;7.70;;
3999;SDS011;2014;53.604;10.112;2022-12-11T11:42:20;8.47;;;6.40;;
3999;SDS011;2014;53.604;10.112;2022-12-11T11:44:56;7.77;;;6.93;;
3999;SDS011;2014;53.604;10.112;2022-12-11T11:47:25;8.13;;;6.17;;
3999;SDS011;2014;53.604;10.112;2022-12-11T11:49:57;7.70;;;6.70;;
3999;SDS011;2014;53.604;10.112;2022-12-11T11:52:28;7.70;;;6.63;;
3999;SDS011;2014;53.604;10.112;2022-12-11T11:54:59;11.20;;;6.83;;
3999;SDS011;2014;53.604;10.112;2022-12-11T11:57:34;7.87;;;7.07;;
3999;SDS011;2014;53.604;10.112;2022-12-11T12:00:04;10.20;;;7.30;;
3999;SDS011;2014;53.604;10.112;2022-12-11T12:02:34;7.43;;;6.70;;
3999;SDS011;2014;53.604;10.112;2022-12-11T12:05:04;9.57;;;7.20;;
3999;SDS011;2014;53.604;10.112;2022-12-11T12:07:34;7.47;;;6.80;;
3999;SDS011;2014;53.604;10.112;2022-12-11T12:10:08;9.43;;;7.70;;
3999;SDS011;2014;53.604;10.112;2022-12-11T12:12:38;10.03;;;8.20;;
3999;SDS011;2014;53.604;10.112;2022-12-11T12:15:14;10.30;;;8.30;;
3999;SDS011;2014;53.604;10.112;2022-12-11T12:17:47;7.57;;;6.70;;
3999;SDS011;2014;53.604;10.112;2022-12-11T12:20:19;9.93;;;7.37;;
3999;SDS011;2014;53.604;10.112;2022-12-11T12:22:52;10.70;;;7.13;;
3999;SDS011;2014;53.604;10.112;2022-12-11T12:25:24;7.60;;;6.73;;
3999;SDS011;2014;53.604;10.112;2022-12-11T12:27:54;10.07;;;6.60;;
3999;SDS011;2014;53.604;10.112;2022-12-11T12:30:23;16.50;;;9.40;;
3999;SDS011;2014;53.604;10.112;2022-12-11T12:32:53;10.70;;;8.00;;
3999;SDS011;2014;53.604;10.112;2022-12-11T12:35:31;7.60;;;6.30;;
3999;SDS011;2014;53.604;10.112;2022-12-11T12:38:03;12.73;;;8.87;;
3999;SDS011;2014;53.604;10.112;2022-12-11T12:40:33;7.70;;;6.30;;
3999;SDS011;2014;53.604;10.112;2022-12-11T12:43:04;8.50;;;7.47;;
3999;SDS011;2014;53.604;10.112;2022-12-11T12:45:33;8.37;;;7.50;;
3999;SDS011;2014;53.604;10.112;2022-12-11T12:48:03;11.53;;;7.40;;
3999;SDS011;2014;53.604;10.112;2022-12-11T12:50:35;12.50;;;8.70;;
3999;SDS011;2014;53.604;10.112;2022-12-11T12:53:03;8.07;;;7.30;;
3999;SDS011;2014;53.604;10.112;2022-12-11T12:55:31;8.70;;;6.97;;
3999;SDS011;2014;53.604;10.112;2022-12-11T12:58:00;9.77;;;6.83;;
3999;SDS011;2014;53.604;10.112;2022-12-11T13:00:33;8.60;;;7.50;;
3999;SDS011;2014;53.604;10.112;2022-12-11T13:03:01;9.97;;;7.43;;
3999;SDS011;2014;53.604;10.112;2022-12-11T13:05:29;9.97;;;6.73;;
3999;SDS011;2014;53.604;10.112;2022-12-11T13:08:00;11.03;;;7.70;;
3999;SDS011;2014;53.604;10.112;2022-12-11T13:10:29;10.30;;;8.17;;
3999;SDS011;2014;53.604;10.112;2022-12-11T13:12:57;11.50;;;7.57;;
3999;SDS011;2014;53.604;10.112;2022-12-11T13:15:35;9.97;;;7.87;;
3999;SDS011;2014;53.604;10.112;2022-12-11T13:18:28;11.23;;;8.63;;
3999;SDS011;2014;53.604;10.112;2022-12-11T13:20:53;10.07;;;7.83;;
3999;SDS011;2014;53.604;10.112;2022-12-11T13:23:26;10.10;;;6.70;;
3999;SDS011;2014;53.604;10.112;2022-12-11T13:25:54;11.60;;;7.47;;
3999;SDS011;2014;53.604;10.112;2022-12-11T13:28:26;7.87;;;7.17;;
3999;SDS011;2014;53.604;10.112;2022-12-11T13:30:56;14.10;;;7.90;;
3999;SDS011;2014;53.604;10.112;2022-12-11T13:33:24;7.77;;;6.87;;
3999;SDS011;2014;53.604;10.112;2022-12-11T13:36:02;9.47;;;8.17;;
3999;SDS011;2014;53.604;10.112;2022-12-11T13:38:32;9.70;;;7.60;;
3999;SDS011;2014;53.604;10.112;2022-12-11T13:41:00;8.70;;;7.30;;
3999;SDS011;2014;53.604;10.112;2022-12-11T13:43:27;11.50;;;8.27;;
3999;SDS011;2014;53.604;10.112;2022-12-11T13:45:56;11.97;;;7.73;;
3999;SDS011;2014;53.604;10.112;2022-12-11T13:48:26;7.70;;;6.90;;
3999;SDS011;2014;53.604;10.112;2022-12-11T13:50:54;10.50;;;8.20;;
3999;SDS011;2014;53.604;10.112;2022-12-11T13:53:22;10.77;;;8.00;;
3999;SDS011;2014;53.604;10.112;2022-12-11T13:56:00;8.60;;;7.63;;
3999;SDS011;2014;53.604;10.112;2022-12-11T13:58:29;10.87;;;8.00;;
3999;SDS011;2014;53.604;10.112;2022-12-11T14:01:01;9.50;;;7.63;;
3999;SDS011;2014;53.604;10.112;2022-12-11T14:03:30;12.40;;;8.20;;
3999;SDS011;2014;53.604;10.112;2022-12-11T14:05:57;10.60;;;8.10;;
3999;SDS011;2014;53.604;10.112;2022-12-11T14:08:26;14.53;;;8.60;;
3999;SDS011;2014;53.604;10.112;2022-12-11T14:10:56;9.50;;;8.17;;
3999;SDS011;2014;53.604;10.112;2022-12-11T14:13:26;9.00;;;8.00;;
3999;SDS011;2014;53.604;10.112;2022-12-11T14:15:55;14.63;;;7.50;;
3999;SDS011;2014;53.604;10.112;2022-12-11T14:18:22;11.13;;;8.47;;
3999;SDS011;2014;53.604;10.112;2022-12-11T14:20:54;8.57;;;7.20;;
3999;SDS011;2014;53.604;10.112;2022-12-11T14:23:23;21.47;;;8.60;;
3999;SDS011;2014;53.604;10.112;2022-12-11T14:25:51;11.27;;;8.20;;
3999;SDS011;2014;53.604;10.112;2022-12-11T14:28:18;9.53;;;8.23;;
3999;SDS011;2014;53.604;10.112;2022-12-11T14:30:49;9.40;;;7.60;;
3999;SDS011;2014;53.604;10.112;2022-12-11T14:33:16;11.13;;;7.70;;
3999;SDS011;2014;53.604;10.112;2022-12-11T14:35:44;10.00;;;8.17;;
3999;SDS011;2014;53.604;10.112;2022-12-11T14:38:13;11.10;;;8.37;;
3999;SDS011;2014;53.604;10.112;2022-12-11T14:40:43;12.67;;;8.40;;
3999;SDS011;2014;53.604;10.112;2022-12-11T14:43:11;9.33;;;7.33;;
3999;SDS011;2014;53.604;10.112;2022-12-11T14:45:41;9.60;;;7.70;;
3999;SDS011;2014;53.604;10.112;2022-12-11T14:48:12;10.77;;;8.50;;
3999;SDS011;2014;53.604;10.112;2022-12-11T14:50:40;10.20;;;7.53;;
3999;SDS011;2014;53.604;10.112;2022-12-11T14:53:12;10.70;;;9.57;;
3999;SDS011;2014;53.604;10.112;2022-12-11T14:55:41;15.10;;;10.93;;
3999;SDS011;2014;53.604;10.112;2022-12-11T14:58:13;15.80;;;11.83;;
3999;SDS011;2014;53.604;10.112;2022-12-11T15:00:41;13.87;;;10.97;;
3999;SDS011;2014;53.604;10.112;2022-12-11T15:03:21;14.13;;;9.57;;
3999;SDS011;2014;53.604;10.112;2022-12-11T15:05:50;12.07;;;9.80;;
3999;SDS011;2014;53.604;10.112;2022-12-11T15:08:18;14.40;;;9.73;;
3999;SDS011;2014;53.604;10.112;2022-12-11T15:10:55;13.70;;;9.33;;
3999;SDS011;2014;53.604;10.112;2022-12-11T15:13:24;9.57;;;8.57;;